Stations météo

Publicité
St-Raphael, France (7680): Température de l'air & dewpoint: 19.03.2019 12:00:00 - 25.03.2019 12:00:00 (CET)St-Raphael, France (7680): Vitesse du vent & gusts: 19.03.2019 12:00:00 - 25.03.2019 12:00:00 (CET)St-Raphael, France (7680): Direction du vent: 19.03.2019 12:00:00 - 25.03.2019 12:00:00 (CET)St-Raphael, France (7680): Quantités de précipitations: 19.03.2019 12:00:00 - 25.03.2019 12:00:00 (CET)
Date & Time tt [°C] td [°C] ff [km/h] ff [knt] fx [km/h] fx [knt] dd rr [mm]
25.03.2019 12:00:00 16,9 10,7 15 8 28 15 ESE 0,0
25.03.2019 11:00:00 18,6 4,0 8 4 21 11 N 0,0
25.03.2019 10:00:00 16,3 3,7 9 5 22 12 NW 0,0
25.03.2019 09:00:00 13,3 4,2 8 4 18 10 NW 0,0
25.03.2019 08:00:00 8,7 3,7 5 3 9 5 WNW 0,0
25.03.2019 07:00:00 5,3 2,1 4 2 16 9 NW -
25.03.2019 06:00:00 5,1 1,8 4 2 9 5 NNW 0,0
25.03.2019 05:00:00 5,0 1,7 2 1 9 5 W 0,0
25.03.2019 04:00:00 8,9 2,7 2 1 21 11 NNW 0,0
25.03.2019 03:00:00 8,3 2,9 8 4 16 9 N 0,0
25.03.2019 02:00:00 7,9 3,2 8 4 15 8 N 0,0
25.03.2019 01:00:00 6,8 3,6 2 1 8 4 N -
25.03.2019 00:00:00 7,3 4,8 2 1 8 4 NNE 0,0
24.03.2019 23:00:00 7,4 4,7 2 1 5 3 NNE 0,0
24.03.2019 22:00:00 9,2 5,6 2 1 8 4 W 0,0
24.03.2019 21:00:00 12,1 7,0 4 2 8 4 NNW 0,0
24.03.2019 20:00:00 13,9 6,7 2 1 13 7 NNE 0,0
24.03.2019 19:00:00 15,6 8,1 8 4 16 9 ENE -
24.03.2019 18:00:00 16,5 9,2 9 5 26 14 E 0,0
24.03.2019 17:00:00 17,2 9,9 11 6 26 14 E 0,0
24.03.2019 16:00:00 17,3 11,8 13 7 34 18 SE 0,0
24.03.2019 15:00:00 17,9 12,6 16 9 31 17 SSE 0,0
24.03.2019 14:00:00 17,3 12,6 13 7 28 15 SE 0,0
24.03.2019 13:00:00 18,3 7,4 13 7 26 14 SE -
24.03.2019 12:00:00 21,3 0,5 8 4 18 10 SE 0,0
24.03.2019 11:00:00 20,6 0,9 4 2 11 6 NW 0,0
24.03.2019 10:00:00 16,9 1,3 9 5 18 10 NW 0,0
24.03.2019 09:00:00 12,9 0,9 9 5 21 11 NW 0,0
24.03.2019 08:00:00 8,3 1,0 5 3 15 8 NW 0,0
24.03.2019 07:00:00 4,8 0,2 4 2 11 6 NW -
24.03.2019 06:00:00 4,4 0,4 4 2 11 6 WNW 0,0
24.03.2019 05:00:00 4,8 0,9 4 2 13 7 WNW 0,0
24.03.2019 04:00:00 8,5 0,2 8 4 18 10 NNW 0,0
24.03.2019 03:00:00 8,8 0,0 8 4 18 10 NW 0,0
24.03.2019 02:00:00 9,3 -0,1 9 5 18 10 NW 0,0
24.03.2019 01:00:00 6,7 0,6 5 3 13 7 NW -
24.03.2019 00:00:00 8,4 1,3 8 4 11 6 NW 0,0
23.03.2019 23:00:00 7,6 1,4 4 2 9 5 WNW 0,0
23.03.2019 22:00:00 8,2 1,1 4 2 11 6 NW 0,0
23.03.2019 21:00:00 10,7 2,5 4 2 13 7 NNW 0,0
23.03.2019 20:00:00 11,2 6,1 4 2 8 4 WNW 0,0
23.03.2019 19:00:00 13,1 6,2 0 0 8 4 N -
23.03.2019 18:00:00 16,7 3,7 2 1 11 6 SSE 0,0
23.03.2019 17:00:00 17,2 5,8 8 4 15 8 SE 0,0
23.03.2019 16:00:00 17,8 5,4 8 4 18 10 SE 0,0
23.03.2019 15:00:00 17,7 8,8 9 5 22 12 SE 0,0
23.03.2019 14:00:00 17,8 8,6 9 5 22 12 SE 0,0
23.03.2019 13:00:00 17,5 7,8 13 7 22 12 SSE -
23.03.2019 12:00:00 17,1 6,6 11 6 24 13 SE 0,0
23.03.2019 11:00:00 20,2 2,1 5 3 16 9 NNW 0,0
23.03.2019 10:00:00 16,7 1,9 8 4 18 10 NNW 0,0
23.03.2019 09:00:00 12,4 2,0 11 6 24 13 NNW 0,0
23.03.2019 08:00:00 9,4 1,1 9 5 21 11 NNW 0,0
23.03.2019 07:00:00 6,3 0,2 8 4 18 10 N -
23.03.2019 06:00:00 6,2 -0,1 5 3 16 9 N 0,0
23.03.2019 05:00:00 6,6 0,5 5 3 16 9 NNW 0,0
23.03.2019 04:00:00 4,8 -0,4 4 2 13 7 WNW 0,0
23.03.2019 03:00:00 6,5 -0,3 4 2 16 9 NNW 0,0
23.03.2019 02:00:00 8,2 0,2 8 4 16 9 N 0,0
23.03.2019 01:00:00 7,9 0,4 8 4 13 7 NNW -
23.03.2019 00:00:00 6,6 0,1 4 2 15 8 WNW 0,0
22.03.2019 23:00:00 8,2 0,9 5 3 13 7 NNW 0,0
22.03.2019 22:00:00 8,2 1,1 5 3 9 5 WNW 0,0
22.03.2019 21:00:00 10,2 1,0 4 2 11 6 NW 0,0
22.03.2019 20:00:00 12,0 1,6 4 2 9 5 WNW 0,0
22.03.2019 19:00:00 15,5 3,0 4 2 9 5 N -
22.03.2019 18:00:00 17,8 3,6 2 1 15 8 E 0,0
22.03.2019 17:00:00 18,5 5,0 9 5 22 12 SSE 0,0
22.03.2019 16:00:00 18,5 6,0 11 6 22 12 S 0,0
22.03.2019 15:00:00 18,4 6,2 15 8 24 13 S 0,0
22.03.2019 14:00:00 18,1 6,3 9 5 18 10 SSE 0,0
22.03.2019 13:00:00 18,1 5,6 11 6 24 13 SSE -
22.03.2019 12:00:00 17,8 3,6 11 6 24 13 SE 0,0
22.03.2019 11:00:00 19,2 -1,3 5 3 16 9 N 0,0
22.03.2019 10:00:00 15,7 0,7 9 5 24 13 NNW 0,0
22.03.2019 09:00:00 11,7 0,1 11 6 22 12 NNW 0,0
22.03.2019 08:00:00 8,7 -0,1 9 5 21 11 N 0,0
22.03.2019 07:00:00 6,1 -0,9 9 5 22 12 NNW -
22.03.2019 06:00:00 5,9 -0,8 9 5 18 10 NNW 0,0
22.03.2019 05:00:00 6,0 -0,7 5 3 16 9 N 0,0
22.03.2019 04:00:00 6,8 -0,7 5 3 21 11 N 0,0
22.03.2019 03:00:00 7,8 -0,7 11 6 26 14 N 0,0
22.03.2019 02:00:00 8,5 -0,5 11 6 24 13 NNW 0,0
22.03.2019 01:00:00 8,7 -0,6 8 4 16 9 NNW -
22.03.2019 00:00:00 8,6 -0,5 5 3 18 10 NNW 0,0
21.03.2019 23:00:00 7,7 0,2 8 4 15 8 NW 0,0
21.03.2019 22:00:00 7,1 0,7 4 2 9 5 NNW 0,0
21.03.2019 21:00:00 9,3 1,0 2 1 13 7 NE 0,0
21.03.2019 20:00:00 11,9 0,9 8 4 11 6 NW 0,0
21.03.2019 19:00:00 13,0 1,3 5 3 9 5 W -
21.03.2019 18:00:00 16,0 1,3 5 3 15 8 S 0,0
21.03.2019 17:00:00 17,0 2,2 8 4 18 10 S 0,0
21.03.2019 16:00:00 17,3 0,4 13 7 22 12 SSE 0,0
21.03.2019 15:00:00 17,8 -0,5 5 3 18 10 SSE 0,0
21.03.2019 14:00:00 17,1 0,3 11 6 18 10 S 0,0
21.03.2019 13:00:00 16,6 -1,5 11 6 22 12 ESE -
21.03.2019 12:00:00 17,5 -3,3 8 4 16 9 ESE 0,0
21.03.2019 11:00:00 15,1 -0,3 5 3 18 10 NNW 0,0
21.03.2019 10:00:00 11,8 0,8 9 5 21 11 NNW 0,0
21.03.2019 09:00:00 8,9 1,3 9 5 21 11 NW 0,0
21.03.2019 08:00:00 5,6 0,2 9 5 22 12 NNW 0,0
21.03.2019 07:00:00 3,4 -0,6 11 6 26 14 N -
21.03.2019 06:00:00 4,0 -0,4 9 5 22 12 NNW 0,0
21.03.2019 05:00:00 4,5 -0,1 11 6 26 14 NNW 0,0
21.03.2019 04:00:00 4,9 -0,1 11 6 22 12 NNW 0,0
21.03.2019 03:00:00 4,3 -0,1 9 5 16 9 WNW 0,0
21.03.2019 02:00:00 4,1 -0,1 5 3 13 7 NW 0,0
21.03.2019 01:00:00 5,9 -0,2 5 3 13 7 W -
21.03.2019 00:00:00 7,5 0,5 5 3 18 10 N 0,0
20.03.2019 23:00:00 8,2 0,7 9 5 21 11 NNW 0,0
20.03.2019 22:00:00 8,8 1,0 11 6 21 11 NW 0,0
20.03.2019 21:00:00 8,7 1,6 8 4 13 7 WNW 0,0
20.03.2019 20:00:00 10,1 2,0 4 2 13 7 NW 0,0
20.03.2019 19:00:00 13,1 1,4 8 4 22 12 ENE -
20.03.2019 18:00:00 14,2 1,1 11 6 35 19 E 0,0
20.03.2019 17:00:00 14,9 1,4 16 9 35 19 E 0,0
20.03.2019 16:00:00 15,5 0,9 15 8 37 20 E 0,0
20.03.2019 15:00:00 15,7 1,0 18 10 41 22 E 0,0
20.03.2019 14:00:00 15,8 0,0 16 9 34 18 ESE 0,0
20.03.2019 13:00:00 15,9 -0,4 15 8 34 18 SE -
20.03.2019 12:00:00 15,6 2,0 11 6 24 13 SE 0,0
20.03.2019 11:00:00 14,6 0,4 4 2 21 11 NNE 0,0
20.03.2019 10:00:00 11,5 1,4 13 7 22 12 WNW 0,0
20.03.2019 09:00:00 8,7 1,4 11 6 26 14 NW 0,0
20.03.2019 08:00:00 5,6 1,3 13 7 22 12 NW 0,0
20.03.2019 07:00:00 3,7 0,4 9 5 21 11 NNW -
20.03.2019 06:00:00 3,9 0,4 9 5 21 11 NNW 0,0
20.03.2019 05:00:00 4,1 0,8 8 4 21 11 NNW 0,0
20.03.2019 04:00:00 4,3 0,8 9 5 16 9 NW 0,0
20.03.2019 03:00:00 3,1 0,5 5 3 13 7 NW 0,0
20.03.2019 02:00:00 4,3 0,6 5 3 15 8 NW 0,0
20.03.2019 01:00:00 6,6 1,3 8 4 13 7 NW -
20.03.2019 00:00:00 8,0 1,6 8 4 18 10 NNW 0,0
19.03.2019 23:00:00 8,1 1,9 8 4 15 8 NW 0,0
19.03.2019 22:00:00 7,9 2,1 8 4 16 9 NW 0,0
19.03.2019 21:00:00 10,1 2,2 2 1 9 5 NNW 0,0
19.03.2019 20:00:00 10,0 2,1 4 2 8 4 W 0,0
19.03.2019 19:00:00 11,9 2,1 2 1 15 8 S -
19.03.2019 18:00:00 13,3 1,3 8 4 21 11 SE 0,0
19.03.2019 17:00:00 13,9 1,5 11 6 29 16 ESE 0,0
19.03.2019 16:00:00 14,3 2,5 16 9 37 20 ESE 0,0
19.03.2019 15:00:00 14,8 1,7 18 10 41 22 ESE 0,0
19.03.2019 14:00:00 15,4 2,2 16 9 35 19 ESE 0,0
19.03.2019 13:00:00 15,5 0,9 16 9 37 20 ESE -
19.03.2019 12:00:00 15,5 -0,3 15 8 28 15 ESE 0,0

tt = Température de l'air
td = dewpoint
ff = Vitesse du vent
fx = gusts
dd = Direction du vent
rr = Quantités de précipitations

stations d'obs. à proximité